sensor_id;sensor_type;location;lat;lon;timestamp;P1;durP1;ratioP1;P2;durP2;ratioP2
52942;SDS011;38809;53.300;6.614;2023-07-31T00:00:27;2.60;;;1.60;;
52942;SDS011;38809;53.300;6.614;2023-07-31T00:02:52;3.25;;;2.10;;
52942;SDS011;38809;53.300;6.614;2023-07-31T00:05:19;3.67;;;1.58;;
52942;SDS011;38809;53.300;6.614;2023-07-31T00:07:44;3.90;;;2.20;;
52942;SDS011;38809;53.300;6.614;2023-07-31T00:10:10;4.05;;;2.15;;
52942;SDS011;38809;53.300;6.614;2023-07-31T00:12:36;3.10;;;2.22;;
52942;SDS011;38809;53.300;6.614;2023-07-31T00:15:02;3.95;;;2.40;;
52942;SDS011;38809;53.300;6.614;2023-07-31T00:17:29;2.55;;;2.15;;
52942;SDS011;38809;53.300;6.614;2023-07-31T00:19:55;3.53;;;2.40;;
52942;SDS011;38809;53.300;6.614;2023-07-31T00:22:20;4.95;;;2.53;;
52942;SDS011;38809;53.300;6.614;2023-07-31T00:24:46;3.72;;;2.70;;
52942;SDS011;38809;53.300;6.614;2023-07-31T00:27:12;3.97;;;2.20;;
52942;SDS011;38809;53.300;6.614;2023-07-31T00:29:37;4.65;;;2.35;;
52942;SDS011;38809;53.300;6.614;2023-07-31T00:32:03;4.28;;;2.47;;
52942;SDS011;38809;53.300;6.614;2023-07-31T00:34:29;2.78;;;2.22;;
52942;SDS011;38809;53.300;6.614;2023-07-31T00:36:55;3.15;;;1.90;;
52942;SDS011;38809;53.300;6.614;2023-07-31T00:39:20;3.20;;;1.95;;
52942;SDS011;38809;53.300;6.614;2023-07-31T00:41:46;2.65;;;1.40;;
52942;SDS011;38809;53.300;6.614;2023-07-31T00:44:12;3.33;;;1.67;;
52942;SDS011;38809;53.300;6.614;2023-07-31T00:46:37;3.15;;;1.85;;
52942;SDS011;38809;53.300;6.614;2023-07-31T00:49:03;2.47;;;1.65;;
52942;SDS011;38809;53.300;6.614;2023-07-31T00:51:30;2.78;;;1.73;;
52942;SDS011;38809;53.300;6.614;2023-07-31T00:53:55;2.55;;;1.48;;
52942;SDS011;38809;53.300;6.614;2023-07-31T00:56:22;2.10;;;1.40;;
52942;SDS011;38809;53.300;6.614;2023-07-31T00:58:48;4.22;;;1.60;;
52942;SDS011;38809;53.300;6.614;2023-07-31T01:01:14;2.63;;;1.10;;
52942;SDS011;38809;53.300;6.614;2023-07-31T01:03:40;1.60;;;1.13;;
52942;SDS011;38809;53.300;6.614;2023-07-31T01:06:13;2.20;;;1.35;;
52942;SDS011;38809;53.300;6.614;2023-07-31T01:09:11;1.80;;;0.98;;
52942;SDS011;38809;53.300;6.614;2023-07-31T01:11:57;1.83;;;0.98;;
52942;SDS011;38809;53.300;6.614;2023-07-31T01:14:26;2.58;;;1.63;;
52942;SDS011;38809;53.300;6.614;2023-07-31T01:16:52;2.42;;;1.58;;
52942;SDS011;38809;53.300;6.614;2023-07-31T01:19:19;1.98;;;1.40;;
52942;SDS011;38809;53.300;6.614;2023-07-31T01:27:34;2.20;;;1.70;;
52942;SDS011;38809;53.300;6.614;2023-07-31T01:30:11;2.58;;;1.60;;
52942;SDS011;38809;53.300;6.614;2023-07-31T01:32:42;2.42;;;1.55;;
52942;SDS011;38809;53.300;6.614;2023-07-31T01:35:11;1.90;;;1.30;;
52942;SDS011;38809;53.300;6.614;2023-07-31T01:37:37;2.13;;;1.30;;
52942;SDS011;38809;53.300;6.614;2023-07-31T01:40:03;2.40;;;1.30;;
52942;SDS011;38809;53.300;6.614;2023-07-31T01:42:30;2.10;;;1.13;;
52942;SDS011;38809;53.300;6.614;2023-07-31T01:44:55;2.05;;;1.25;;
52942;SDS011;38809;53.300;6.614;2023-07-31T01:47:21;2.50;;;1.55;;
52942;SDS011;38809;53.300;6.614;2023-07-31T01:49:48;2.22;;;1.20;;
52942;SDS011;38809;53.300;6.614;2023-07-31T01:52:14;2.10;;;1.30;;
52942;SDS011;38809;53.300;6.614;2023-07-31T01:54:40;3.50;;;1.55;;
52942;SDS011;38809;53.300;6.614;2023-07-31T01:57:05;2.00;;;1.30;;
52942;SDS011;38809;53.300;6.614;2023-07-31T01:59:31;2.88;;;1.42;;
52942;SDS011;38809;53.300;6.614;2023-07-31T02:01:57;2.55;;;1.70;;
52942;SDS011;38809;53.300;6.614;2023-07-31T02:04:23;2.70;;;1.48;;
52942;SDS011;38809;53.300;6.614;2023-07-31T02:06:48;5.38;;;1.70;;
52942;SDS011;38809;53.300;6.614;2023-07-31T02:09:14;2.00;;;1.40;;
52942;SDS011;38809;53.300;6.614;2023-07-31T02:11:40;2.05;;;1.50;;
52942;SDS011;38809;53.300;6.614;2023-07-31T02:14:05;3.00;;;1.50;;
52942;SDS011;38809;53.300;6.614;2023-07-31T02:16:31;2.67;;;1.48;;
52942;SDS011;38809;53.300;6.614;2023-07-31T02:18:56;2.53;;;1.25;;
52942;SDS011;38809;53.300;6.614;2023-07-31T02:21:22;1.95;;;1.40;;
52942;SDS011;38809;53.300;6.614;2023-07-31T02:23:48;2.70;;;1.70;;
52942;SDS011;38809;53.300;6.614;2023-07-31T02:26:13;2.08;;;1.30;;
52942;SDS011;38809;53.300;6.614;2023-07-31T02:28:39;2.40;;;1.52;;
52942;SDS011;38809;53.300;6.614;2023-07-31T02:31:07;2.42;;;1.40;;
52942;SDS011;38809;53.300;6.614;2023-07-31T02:33:33;2.13;;;1.23;;
52942;SDS011;38809;53.300;6.614;2023-07-31T02:35:59;2.55;;;1.20;;
52942;SDS011;38809;53.300;6.614;2023-07-31T02:38:25;2.10;;;1.35;;
52942;SDS011;38809;53.300;6.614;2023-07-31T02:40:50;2.65;;;1.23;;
52942;SDS011;38809;53.300;6.614;2023-07-31T02:43:16;1.83;;;1.20;;
52942;SDS011;38809;53.300;6.614;2023-07-31T02:45:41;1.70;;;1.10;;
52942;SDS011;38809;53.300;6.614;2023-07-31T02:48:07;4.63;;;1.30;;
52942;SDS011;38809;53.300;6.614;2023-07-31T02:50:33;1.98;;;1.13;;
52942;SDS011;38809;53.300;6.614;2023-07-31T02:52:59;2.08;;;1.20;;
52942;SDS011;38809;53.300;6.614;2023-07-31T02:55:24;1.77;;;1.17;;
52942;SDS011;38809;53.300;6.614;2023-07-31T02:57:50;1.75;;;0.98;;
52942;SDS011;38809;53.300;6.614;2023-07-31T03:00:17;2.67;;;1.17;;
52942;SDS011;38809;53.300;6.614;2023-07-31T03:02:43;2.10;;;1.20;;
52942;SDS011;38809;53.300;6.614;2023-07-31T03:05:08;2.72;;;1.00;;
52942;SDS011;38809;53.300;6.614;2023-07-31T03:07:34;1.95;;;1.05;;
52942;SDS011;38809;53.300;6.614;2023-07-31T03:10:00;1.75;;;0.98;;
52942;SDS011;38809;53.300;6.614;2023-07-31T03:12:26;1.65;;;0.90;;
52942;SDS011;38809;53.300;6.614;2023-07-31T03:14:52;1.95;;;1.02;;
52942;SDS011;38809;53.300;6.614;2023-07-31T03:17:18;2.05;;;1.00;;
52942;SDS011;38809;53.300;6.614;2023-07-31T03:19:43;1.85;;;0.90;;
52942;SDS011;38809;53.300;6.614;2023-07-31T03:22:09;2.08;;;0.88;;
52942;SDS011;38809;53.300;6.614;2023-07-31T03:24:34;2.95;;;1.25;;
52942;SDS011;38809;53.300;6.614;2023-07-31T03:27:00;2.00;;;1.08;;
52942;SDS011;38809;53.300;6.614;2023-07-31T03:29:26;3.20;;;1.35;;
52942;SDS011;38809;53.300;6.614;2023-07-31T03:31:51;2.92;;;1.00;;
52942;SDS011;38809;53.300;6.614;2023-07-31T03:34:17;2.03;;;1.02;;
52942;SDS011;38809;53.300;6.614;2023-07-31T03:36:43;2.28;;;0.93;;
52942;SDS011;38809;53.300;6.614;2023-07-31T03:39:09;2.53;;;1.10;;
52942;SDS011;38809;53.300;6.614;2023-07-31T03:41:35;1.70;;;0.93;;
52942;SDS011;38809;53.300;6.614;2023-07-31T03:44:01;5.03;;;1.00;;
52942;SDS011;38809;53.300;6.614;2023-07-31T03:46:26;2.58;;;0.93;;
52942;SDS011;38809;53.300;6.614;2023-07-31T03:48:52;1.60;;;0.80;;
52942;SDS011;38809;53.300;6.614;2023-07-31T03:51:18;1.92;;;0.90;;
52942;SDS011;38809;53.300;6.614;2023-07-31T03:53:43;2.03;;;0.85;;
52942;SDS011;38809;53.300;6.614;2023-07-31T03:56:09;1.58;;;0.80;;
52942;SDS011;38809;53.300;6.614;2023-07-31T03:58:35;1.88;;;1.10;;
52942;SDS011;38809;53.300;6.614;2023-07-31T04:01:02;2.80;;;1.08;;
52942;SDS011;38809;53.300;6.614;2023-07-31T04:05:54;2.08;;;0.77;;
52942;SDS011;38809;53.300;6.614;2023-07-31T04:08:23;2.47;;;0.70;;
52942;SDS011;38809;53.300;6.614;2023-07-31T04:10:49;1.27;;;0.68;;
52942;SDS011;38809;53.300;6.614;2023-07-31T04:13:15;1.85;;;0.73;;
52942;SDS011;38809;53.300;6.614;2023-07-31T04:15:41;1.40;;;0.80;;
52942;SDS011;38809;53.300;6.614;2023-07-31T04:18:07;2.85;;;0.70;;
52942;SDS011;38809;53.300;6.614;2023-07-31T04:20:32;3.35;;;0.98;;
52942;SDS011;38809;53.300;6.614;2023-07-31T04:22:58;1.33;;;0.70;;
52942;SDS011;38809;53.300;6.614;2023-07-31T04:25:24;1.98;;;0.68;;
52942;SDS011;38809;53.300;6.614;2023-07-31T04:27:49;1.25;;;0.60;;
52942;SDS011;38809;53.300;6.614;2023-07-31T04:30:15;1.50;;;1.00;;
52942;SDS011;38809;53.300;6.614;2023-07-31T04:32:41;1.23;;;0.80;;
52942;SDS011;38809;53.300;6.614;2023-07-31T04:35:06;2.42;;;0.80;;
52942;SDS011;38809;53.300;6.614;2023-07-31T04:37:32;1.70;;;0.57;;
52942;SDS011;38809;53.300;6.614;2023-07-31T04:39:58;2.00;;;0.70;;
52942;SDS011;38809;53.300;6.614;2023-07-31T04:42:24;2.55;;;0.85;;
52942;SDS011;38809;53.300;6.614;2023-07-31T04:44:50;1.63;;;0.73;;
52942;SDS011;38809;53.300;6.614;2023-07-31T04:47:15;1.67;;;0.80;;
52942;SDS011;38809;53.300;6.614;2023-07-31T04:49:41;3.05;;;1.23;;
52942;SDS011;38809;53.300;6.614;2023-07-31T04:52:07;1.42;;;0.70;;
52942;SDS011;38809;53.300;6.614;2023-07-31T04:54:32;1.38;;;0.60;;
52942;SDS011;38809;53.300;6.614;2023-07-31T04:56:58;1.92;;;1.10;;
52942;SDS011;38809;53.300;6.614;2023-07-31T04:59:24;1.50;;;0.70;;
52942;SDS011;38809;53.300;6.614;2023-07-31T05:01:49;1.80;;;0.50;;
52942;SDS011;38809;53.300;6.614;2023-07-31T05:04:15;1.40;;;0.60;;
52942;SDS011;38809;53.300;6.614;2023-07-31T05:06:41;1.38;;;0.55;;
52942;SDS011;38809;53.300;6.614;2023-07-31T05:09:07;2.83;;;0.68;;
52942;SDS011;38809;53.300;6.614;2023-07-31T05:11:34;1.17;;;0.60;;
52942;SDS011;38809;53.300;6.614;2023-07-31T05:14:00;1.10;;;0.60;;
52942;SDS011;38809;53.300;6.614;2023-07-31T05:16:26;1.00;;;0.55;;
52942;SDS011;38809;53.300;6.614;2023-07-31T05:18:51;1.10;;;0.50;;
52942;SDS011;38809;53.300;6.614;2023-07-31T05:21:17;1.88;;;0.57;;
52942;SDS011;38809;53.300;6.614;2023-07-31T05:23:43;2.70;;;0.90;;
52942;SDS011;38809;53.300;6.614;2023-07-31T05:26:08;1.40;;;0.60;;
52942;SDS011;38809;53.300;6.614;2023-07-31T05:28:37;1.85;;;0.52;;
52942;SDS011;38809;53.300;6.614;2023-07-31T05:31:03;1.10;;;0.50;;
52942;SDS011;38809;53.300;6.614;2023-07-31T05:33:30;0.93;;;0.40;;
52942;SDS011;38809;53.300;6.614;2023-07-31T05:35:57;1.52;;;0.40;;
52942;SDS011;38809;53.300;6.614;2023-07-31T05:38:23;1.33;;;0.40;;
52942;SDS011;38809;53.300;6.614;2023-07-31T05:40:48;0.85;;;0.40;;
52942;SDS011;38809;53.300;6.614;2023-07-31T05:43:14;2.08;;;0.50;;
52942;SDS011;38809;53.300;6.614;2023-07-31T05:45:41;1.05;;;0.60;;
52942;SDS011;38809;53.300;6.614;2023-07-31T05:48:07;0.75;;;0.40;;
52942;SDS011;38809;53.300;6.614;2023-07-31T05:50:33;0.80;;;0.38;;
52942;SDS011;38809;53.300;6.614;2023-07-31T05:52:59;0.77;;;0.40;;
52942;SDS011;38809;53.300;6.614;2023-07-31T05:55:25;0.80;;;0.40;;
52942;SDS011;38809;53.300;6.614;2023-07-31T05:57:54;0.90;;;0.40;;
52942;SDS011;38809;53.300;6.614;2023-07-31T06:00:20;0.75;;;0.40;;
52942;SDS011;38809;53.300;6.614;2023-07-31T06:05:12;1.52;;;0.60;;
52942;SDS011;38809;53.300;6.614;2023-07-31T06:07:38;0.98;;;0.35;;
52942;SDS011;38809;53.300;6.614;2023-07-31T06:10:03;0.93;;;0.50;;
52942;SDS011;38809;53.300;6.614;2023-07-31T06:12:34;1.48;;;0.52;;
52942;SDS011;38809;53.300;6.614;2023-07-31T06:15:00;1.23;;;0.55;;
52942;SDS011;38809;53.300;6.614;2023-07-31T06:17:27;1.05;;;0.50;;
52942;SDS011;38809;53.300;6.614;2023-07-31T06:19:53;1.20;;;0.30;;
52942;SDS011;38809;53.300;6.614;2023-07-31T06:22:18;1.20;;;0.40;;
52942;SDS011;38809;53.300;6.614;2023-07-31T06:24:44;0.85;;;0.40;;
52942;SDS011;38809;53.300;6.614;2023-07-31T06:27:10;0.82;;;0.38;;
52942;SDS011;38809;53.300;6.614;2023-07-31T06:29:36;2.25;;;0.70;;
52942;SDS011;38809;53.300;6.614;2023-07-31T06:32:02;1.83;;;0.60;;
52942;SDS011;38809;53.300;6.614;2023-07-31T06:34:28;1.05;;;0.45;;
52942;SDS011;38809;53.300;6.614;2023-07-31T06:36:55;1.02;;;0.55;;
52942;SDS011;38809;53.300;6.614;2023-07-31T06:39:21;1.15;;;0.60;;
52942;SDS011;38809;53.300;6.614;2023-07-31T06:41:46;1.63;;;0.75;;
52942;SDS011;38809;53.300;6.614;2023-07-31T06:44:12;1.40;;;0.50;;
52942;SDS011;38809;53.300;6.614;2023-07-31T06:46:38;3.60;;;0.70;;
52942;SDS011;38809;53.300;6.614;2023-07-31T06:49:03;1.55;;;0.70;;
52942;SDS011;38809;53.300;6.614;2023-07-31T06:51:29;1.60;;;0.90;;
52942;SDS011;38809;53.300;6.614;2023-07-31T06:53:56;2.83;;;0.90;;
52942;SDS011;38809;53.300;6.614;2023-07-31T06:58:48;2.30;;;1.15;;
52942;SDS011;38809;53.300;6.614;2023-07-31T07:01:14;3.20;;;1.52;;
52942;SDS011;38809;53.300;6.614;2023-07-31T07:03:40;3.47;;;1.70;;
52942;SDS011;38809;53.300;6.614;2023-07-31T07:06:05;5.03;;;2.08;;
52942;SDS011;38809;53.300;6.614;2023-07-31T07:08:32;3.95;;;1.60;;
52942;SDS011;38809;53.300;6.614;2023-07-31T07:10:57;3.75;;;2.08;;
52942;SDS011;38809;53.300;6.614;2023-07-31T07:13:23;6.40;;;2.67;;
52942;SDS011;38809;53.300;6.614;2023-07-31T07:15:49;5.00;;;2.47;;
52942;SDS011;38809;53.300;6.614;2023-07-31T07:18:14;7.30;;;2.40;;
52942;SDS011;38809;53.300;6.614;2023-07-31T07:20:41;6.15;;;2.80;;
52942;SDS011;38809;53.300;6.614;2023-07-31T07:23:11;6.90;;;3.53;;
52942;SDS011;38809;53.300;6.614;2023-07-31T07:25:37;8.88;;;3.15;;
52942;SDS011;38809;53.300;6.614;2023-07-31T07:28:03;9.93;;;3.45;;
52942;SDS011;38809;53.300;6.614;2023-07-31T07:30:29;9.10;;;3.20;;
52942;SDS011;38809;53.300;6.614;2023-07-31T07:32:54;8.65;;;3.13;;
52942;SDS011;38809;53.300;6.614;2023-07-31T07:35:20;6.85;;;2.97;;
52942;SDS011;38809;53.300;6.614;2023-07-31T07:37:48;7.07;;;3.45;;
52942;SDS011;38809;53.300;6.614;2023-07-31T07:40:15;8.23;;;3.20;;
52942;SDS011;38809;53.300;6.614;2023-07-31T07:42:41;6.57;;;3.08;;
52942;SDS011;38809;53.300;6.614;2023-07-31T07:45:07;5.15;;;2.15;;
52942;SDS011;38809;53.300;6.614;2023-07-31T07:47:33;8.98;;;2.60;;
52942;SDS011;38809;53.300;6.614;2023-07-31T07:49:59;5.05;;;2.45;;
52942;SDS011;38809;53.300;6.614;2023-07-31T07:52:24;5.32;;;2.40;;
52942;SDS011;38809;53.300;6.614;2023-07-31T07:54:50;6.95;;;2.60;;
52942;SDS011;38809;53.300;6.614;2023-07-31T07:57:16;9.93;;;3.75;;
52942;SDS011;38809;53.300;6.614;2023-07-31T07:59:42;5.10;;;2.13;;
52942;SDS011;38809;53.300;6.614;2023-07-31T08:02:07;6.95;;;2.30;;
52942;SDS011;38809;53.300;6.614;2023-07-31T08:04:33;5.13;;;2.20;;
52942;SDS011;38809;53.300;6.614;2023-07-31T08:06:59;6.00;;;1.83;;
52942;SDS011;38809;53.300;6.614;2023-07-31T08:09:24;5.05;;;2.22;;
52942;SDS011;38809;53.300;6.614;2023-07-31T08:11:50;4.45;;;2.35;;
52942;SDS011;38809;53.300;6.614;2023-07-31T08:14:15;3.70;;;2.08;;
52942;SDS011;38809;53.300;6.614;2023-07-31T08:16:42;4.07;;;1.80;;
52942;SDS011;38809;53.300;6.614;2023-07-31T08:19:08;2.72;;;1.27;;
52942;SDS011;38809;53.300;6.614;2023-07-31T08:21:33;2.90;;;1.40;;
52942;SDS011;38809;53.300;6.614;2023-07-31T08:23:59;2.42;;;1.10;;
52942;SDS011;38809;53.300;6.614;2023-07-31T08:26:25;2.78;;;0.88;;
52942;SDS011;38809;53.300;6.614;2023-07-31T08:28:50;2.03;;;0.70;;
52942;SDS011;38809;53.300;6.614;2023-07-31T08:31:16;2.15;;;0.50;;
52942;SDS011;38809;53.300;6.614;2023-07-31T08:33:43;1.85;;;0.88;;
52942;SDS011;38809;53.300;6.614;2023-07-31T08:36:09;1.10;;;0.50;;
52942;SDS011;38809;53.300;6.614;2023-07-31T08:38:34;0.93;;;0.50;;
52942;SDS011;38809;53.300;6.614;2023-07-31T08:41:00;1.73;;;0.80;;
52942;SDS011;38809;53.300;6.614;2023-07-31T08:43:28;1.25;;;0.70;;
52942;SDS011;38809;53.300;6.614;2023-07-31T08:45:54;1.15;;;0.55;;
52942;SDS011;38809;53.300;6.614;2023-07-31T08:48:21;1.50;;;0.50;;
52942;SDS011;38809;53.300;6.614;2023-07-31T08:50:48;2.08;;;0.60;;
52942;SDS011;38809;53.300;6.614;2023-07-31T08:53:14;1.05;;;0.50;;
52942;SDS011;38809;53.300;6.614;2023-07-31T08:55:41;1.02;;;0.63;;
52942;SDS011;38809;53.300;6.614;2023-07-31T08:58:08;1.15;;;0.55;;
52942;SDS011;38809;53.300;6.614;2023-07-31T09:00:34;1.00;;;0.50;;
52942;SDS011;38809;53.300;6.614;2023-07-31T09:03:13;1.27;;;0.60;;
52942;SDS011;38809;53.300;6.614;2023-07-31T09:05:43;1.17;;;0.60;;
52942;SDS011;38809;53.300;6.614;2023-07-31T09:08:10;1.20;;;0.50;;
52942;SDS011;38809;53.300;6.614;2023-07-31T09:10:41;1.25;;;0.60;;
52942;SDS011;38809;53.300;6.614;2023-07-31T09:13:09;1.00;;;0.50;;
52942;SDS011;38809;53.300;6.614;2023-07-31T09:15:35;0.70;;;0.35;;
52942;SDS011;38809;53.300;6.614;2023-07-31T09:18:02;1.23;;;0.50;;
52942;SDS011;38809;53.300;6.614;2023-07-31T09:20:30;1.00;;;0.50;;
52942;SDS011;38809;53.300;6.614;2023-07-31T09:22:56;1.08;;;0.40;;
52942;SDS011;38809;53.300;6.614;2023-07-31T09:25:30;0.82;;;0.32;;
52942;SDS011;38809;53.300;6.614;2023-07-31T09:28:00;0.60;;;0.47;;
52942;SDS011;38809;53.300;6.614;2023-07-31T09:30:28;0.93;;;0.40;;
52942;SDS011;38809;53.300;6.614;2023-07-31T09:33:01;1.05;;;0.57;;
52942;SDS011;38809;53.300;6.614;2023-07-31T09:35:29;0.40;;;0.30;;
52942;SDS011;38809;53.300;6.614;2023-07-31T09:37:57;2.08;;;0.50;;
52942;SDS011;38809;53.300;6.614;2023-07-31T09:40:34;0.45;;;0.30;;
52942;SDS011;38809;53.300;6.614;2023-07-31T09:43:05;0.57;;;0.30;;
52942;SDS011;38809;53.300;6.614;2023-07-31T09:45:33;0.70;;;0.30;;
52942;SDS011;38809;53.300;6.614;2023-07-31T09:48:03;0.70;;;0.25;;
52942;SDS011;38809;53.300;6.614;2023-07-31T09:50:34;0.70;;;0.40;;
52942;SDS011;38809;53.300;6.614;2023-07-31T09:53:08;0.50;;;0.28;;
52942;SDS011;38809;53.300;6.614;2023-07-31T09:55:34;0.52;;;0.30;;
52942;SDS011;38809;53.300;6.614;2023-07-31T09:58:10;0.60;;;0.28;;
52942;SDS011;38809;53.300;6.614;2023-07-31T10:00:37;0.10;;;0.10;;
52942;SDS011;38809;53.300;6.614;2023-07-31T10:03:07;0.88;;;0.10;;
52942;SDS011;38809;53.300;6.614;2023-07-31T10:05:35;0.20;;;0.20;;
52942;SDS011;38809;53.300;6.614;2023-07-31T10:08:19;0.10;;;0.10;;
52942;SDS011;38809;53.300;6.614;2023-07-31T10:10:48;0.28;;;0.20;;
52942;SDS011;38809;53.300;6.614;2023-07-31T10:13:14;0.47;;;0.13;;
52942;SDS011;38809;53.300;6.614;2023-07-31T10:15:41;0.85;;;0.30;;
52942;SDS011;38809;53.300;6.614;2023-07-31T10:18:08;0.40;;;0.20;;
52942;SDS011;38809;53.300;6.614;2023-07-31T10:20:34;0.70;;;0.30;;
52942;SDS011;38809;53.300;6.614;2023-07-31T10:23:01;0.40;;;0.20;;
52942;SDS011;38809;53.300;6.614;2023-07-31T10:25:27;0.73;;;0.40;;
52942;SDS011;38809;53.300;6.614;2023-07-31T10:27:53;1.30;;;0.35;;
52942;SDS011;38809;53.300;6.614;2023-07-31T10:30:20;0.80;;;0.30;;
52942;SDS011;38809;53.300;6.614;2023-07-31T10:32:50;1.58;;;0.30;;
52942;SDS011;38809;53.300;6.614;2023-07-31T10:35:18;1.70;;;0.40;;
52942;SDS011;38809;53.300;6.614;2023-07-31T10:37:44;1.15;;;0.40;;
52942;SDS011;38809;53.300;6.614;2023-07-31T10:40:10;1.90;;;0.60;;
52942;SDS011;38809;53.300;6.614;2023-07-31T10:42:47;1.77;;;0.60;;
52942;SDS011;38809;53.300;6.614;2023-07-31T10:45:24;2.55;;;0.70;;
52942;SDS011;38809;53.300;6.614;2023-07-31T10:48:03;1.48;;;0.60;;
52942;SDS011;38809;53.300;6.614;2023-07-31T10:50:31;1.80;;;0.60;;
52942;SDS011;38809;53.300;6.614;2023-07-31T10:53:04;1.52;;;0.55;;
52942;SDS011;38809;53.300;6.614;2023-07-31T10:58:11;1.50;;;0.75;;
52942;SDS011;38809;53.300;6.614;2023-07-31T11:00:41;2.00;;;0.60;;
52942;SDS011;38809;53.300;6.614;2023-07-31T11:03:09;3.25;;;0.95;;
52942;SDS011;38809;53.300;6.614;2023-07-31T11:05:44;1.38;;;0.60;;
52942;SDS011;38809;53.300;6.614;2023-07-31T11:08:12;1.48;;;0.70;;
52942;SDS011;38809;53.300;6.614;2023-07-31T11:10:39;1.15;;;0.60;;
52942;SDS011;38809;53.300;6.614;2023-07-31T11:13:04;1.27;;;0.75;;
52942;SDS011;38809;53.300;6.614;2023-07-31T11:15:30;1.23;;;0.32;;
52942;SDS011;38809;53.300;6.614;2023-07-31T11:17:56;0.55;;;0.30;;
52942;SDS011;38809;53.300;6.614;2023-07-31T11:20:24;2.33;;;0.68;;
52942;SDS011;38809;53.300;6.614;2023-07-31T11:22:50;1.27;;;0.50;;
52942;SDS011;38809;53.300;6.614;2023-07-31T11:25:16;1.35;;;0.52;;
52942;SDS011;38809;53.300;6.614;2023-07-31T11:27:42;1.42;;;0.50;;
52942;SDS011;38809;53.300;6.614;2023-07-31T11:30:09;1.35;;;0.57;;
52942;SDS011;38809;53.300;6.614;2023-07-31T11:32:38;1.90;;;0.85;;
52942;SDS011;38809;53.300;6.614;2023-07-31T11:35:04;2.80;;;0.88;;
52942;SDS011;38809;53.300;6.614;2023-07-31T11:37:42;1.67;;;0.65;;
52942;SDS011;38809;53.300;6.614;2023-07-31T11:40:09;1.73;;;0.63;;
52942;SDS011;38809;53.300;6.614;2023-07-31T11:42:35;2.03;;;0.80;;
52942;SDS011;38809;53.300;6.614;2023-07-31T11:45:05;2.47;;;0.70;;
52942;SDS011;38809;53.300;6.614;2023-07-31T11:47:34;1.40;;;0.60;;
52942;SDS011;38809;53.300;6.614;2023-07-31T11:50:02;1.40;;;0.60;;
52942;SDS011;38809;53.300;6.614;2023-07-31T11:52:37;1.35;;;0.50;;
52942;SDS011;38809;53.300;6.614;2023-07-31T11:55:07;0.90;;;0.50;;
52942;SDS011;38809;53.300;6.614;2023-07-31T11:57:40;1.52;;;0.68;;
52942;SDS011;38809;53.300;6.614;2023-07-31T12:00:09;1.27;;;0.60;;
52942;SDS011;38809;53.300;6.614;2023-07-31T12:02:38;1.52;;;0.50;;
52942;SDS011;38809;53.300;6.614;2023-07-31T12:05:16;5.15;;;1.25;;
52942;SDS011;38809;53.300;6.614;2023-07-31T12:07:49;2.88;;;0.82;;
52942;SDS011;38809;53.300;6.614;2023-07-31T12:10:49;3.65;;;1.13;;
52942;SDS011;38809;53.300;6.614;2023-07-31T12:13:10;0.98;;;0.63;;
52942;SDS011;38809;53.300;6.614;2023-07-31T12:15:42;1.98;;;0.80;;
52942;SDS011;38809;53.300;6.614;2023-07-31T12:18:10;2.22;;;0.60;;
52942;SDS011;38809;53.300;6.614;2023-07-31T12:20:44;1.40;;;0.65;;
52942;SDS011;38809;53.300;6.614;2023-07-31T12:25:40;2.00;;;0.93;;
52942;SDS011;38809;53.300;6.614;2023-07-31T12:28:06;1.63;;;0.70;;
52942;SDS011;38809;53.300;6.614;2023-07-31T12:30:36;1.52;;;0.73;;
52942;SDS011;38809;53.300;6.614;2023-07-31T12:33:13;1.50;;;0.77;;
52942;SDS011;38809;53.300;6.614;2023-07-31T12:35:46;2.03;;;1.23;;
52942;SDS011;38809;53.300;6.614;2023-07-31T12:38:12;2.25;;;1.08;;
52942;SDS011;38809;53.300;6.614;2023-07-31T12:40:39;2.28;;;0.80;;
52942;SDS011;38809;53.300;6.614;2023-07-31T12:43:06;1.75;;;0.73;;
52942;SDS011;38809;53.300;6.614;2023-07-31T12:45:33;1.38;;;0.80;;
52942;SDS011;38809;53.300;6.614;2023-07-31T12:47:59;2.55;;;0.80;;
52942;SDS011;38809;53.300;6.614;2023-07-31T12:52:53;1.35;;;0.77;;
52942;SDS011;38809;53.300;6.614;2023-07-31T12:55:20;1.88;;;0.73;;
52942;SDS011;38809;53.300;6.614;2023-07-31T13:00:12;1.90;;;0.90;;
52942;SDS011;38809;53.300;6.614;2023-07-31T13:02:38;1.50;;;0.80;;
52942;SDS011;38809;53.300;6.614;2023-07-31T13:05:04;1.05;;;0.70;;
52942;SDS011;38809;53.300;6.614;2023-07-31T13:07:30;1.50;;;0.80;;
52942;SDS011;38809;53.300;6.614;2023-07-31T13:09:55;2.80;;;0.80;;
52942;SDS011;38809;53.300;6.614;2023-07-31T13:12:21;1.35;;;0.68;;
52942;SDS011;38809;53.300;6.614;2023-07-31T13:14:47;1.30;;;0.70;;
52942;SDS011;38809;53.300;6.614;2023-07-31T13:17:12;1.80;;;0.68;;
52942;SDS011;38809;53.300;6.614;2023-07-31T13:19:38;2.05;;;1.10;;
52942;SDS011;38809;53.300;6.614;2023-07-31T13:22:04;3.10;;;1.13;;
52942;SDS011;38809;53.300;6.614;2023-07-31T13:24:29;2.55;;;0.98;;
52942;SDS011;38809;53.300;6.614;2023-07-31T13:26:56;3.63;;;1.40;;
52942;SDS011;38809;53.300;6.614;2023-07-31T13:29:22;2.35;;;1.10;;
52942;SDS011;38809;53.300;6.614;2023-07-31T13:31:48;5.75;;;1.40;;
52942;SDS011;38809;53.300;6.614;2023-07-31T13:34:14;3.78;;;1.23;;
52942;SDS011;38809;53.300;6.614;2023-07-31T13:36:40;2.97;;;1.20;;
52942;SDS011;38809;53.300;6.614;2023-07-31T13:39:06;4.07;;;1.33;;
52942;SDS011;38809;53.300;6.614;2023-07-31T13:41:32;2.20;;;1.00;;
52942;SDS011;38809;53.300;6.614;2023-07-31T13:43:58;3.28;;;1.05;;
52942;SDS011;38809;53.300;6.614;2023-07-31T13:46:24;3.55;;;1.40;;
52942;SDS011;38809;53.300;6.614;2023-07-31T13:48:50;5.85;;;1.83;;
52942;SDS011;38809;53.300;6.614;2023-07-31T13:51:19;3.53;;;1.20;;
52942;SDS011;38809;53.300;6.614;2023-07-31T13:53:45;2.20;;;1.20;;
52942;SDS011;38809;53.300;6.614;2023-07-31T13:56:11;3.33;;;1.42;;
52942;SDS011;38809;53.300;6.614;2023-07-31T13:58:36;4.88;;;1.58;;
52942;SDS011;38809;53.300;6.614;2023-07-31T14:01:02;3.83;;;1.40;;
52942;SDS011;38809;53.300;6.614;2023-07-31T14:03:28;2.42;;;1.13;;
52942;SDS011;38809;53.300;6.614;2023-07-31T14:05:54;5.63;;;1.13;;
52942;SDS011;38809;53.300;6.614;2023-07-31T14:08:20;3.45;;;1.30;;
52942;SDS011;38809;53.300;6.614;2023-07-31T14:10:46;3.92;;;1.65;;
52942;SDS011;38809;53.300;6.614;2023-07-31T14:13:12;5.32;;;1.77;;
52942;SDS011;38809;53.300;6.614;2023-07-31T14:15:38;3.65;;;1.20;;
52942;SDS011;38809;53.300;6.614;2023-07-31T14:18:04;7.43;;;1.40;;
52942;SDS011;38809;53.300;6.614;2023-07-31T14:20:30;4.78;;;1.42;;
52942;SDS011;38809;53.300;6.614;2023-07-31T14:22:55;3.58;;;1.27;;
52942;SDS011;38809;53.300;6.614;2023-07-31T14:25:21;3.72;;;1.30;;
52942;SDS011;38809;53.300;6.614;2023-07-31T14:27:47;4.38;;;1.50;;
52942;SDS011;38809;53.300;6.614;2023-07-31T14:30:12;4.05;;;1.60;;
52942;SDS011;38809;53.300;6.614;2023-07-31T14:32:38;5.53;;;1.55;;
52942;SDS011;38809;53.300;6.614;2023-07-31T14:35:04;4.15;;;1.63;;
52942;SDS011;38809;53.300;6.614;2023-07-31T14:37:36;3.53;;;1.50;;
52942;SDS011;38809;53.300;6.614;2023-07-31T14:40:03;4.30;;;1.80;;
52942;SDS011;38809;53.300;6.614;2023-07-31T14:44:55;2.92;;;1.52;;
52942;SDS011;38809;53.300;6.614;2023-07-31T14:47:21;8.40;;;2.05;;
52942;SDS011;38809;53.300;6.614;2023-07-31T14:49:46;3.50;;;1.73;;
52942;SDS011;38809;53.300;6.614;2023-07-31T14:52:12;3.65;;;1.77;;
52942;SDS011;38809;53.300;6.614;2023-07-31T14:54:37;5.70;;;1.70;;
52942;SDS011;38809;53.300;6.614;2023-07-31T14:57:03;3.15;;;1.40;;
52942;SDS011;38809;53.300;6.614;2023-07-31T14:59:29;5.13;;;1.85;;
52942;SDS011;38809;53.300;6.614;2023-07-31T15:01:55;4.80;;;1.88;;
52942;SDS011;38809;53.300;6.614;2023-07-31T15:04:20;5.82;;;2.05;;
52942;SDS011;38809;53.300;6.614;2023-07-31T15:09:12;4.53;;;1.88;;
52942;SDS011;38809;53.300;6.614;2023-07-31T15:11:38;5.93;;;1.63;;
52942;SDS011;38809;53.300;6.614;2023-07-31T15:14:04;6.03;;;2.17;;